CST,Max TemperatureF,Mean TemperatureF,Min TemperatureF,Max Dew PointF,MeanDew PointF,Min DewpointF,Max Humidity, Mean Humidity, Min Humidity, Max Sea Level PressureIn, Mean Sea Level PressureIn, Min Sea Level PressureIn, Max VisibilityMiles, Mean VisibilityMiles, Min VisibilityMiles, Max Wind SpeedMPH, Mean Wind SpeedMPH, Max Gust SpeedMPH,PrecipitationIn, CloudCover, Events, WindDirDegrees
2013-11-1,77,59,41,52,43,34,100,65,22,30.04,29.90,29.84,10,10,3,9,3,,0.00,0,,273
2013-11-2,64,50,37,43,37,32,87,61,30,30.25,30.17,30.04,10,10,7,20,7,24,0.00,0,,320
2013-11-3,64,48,33,43,38,32,100,70,39,30.27,30.18,30.09,10,10,4,13,5,20,0.00,0,,124
2013-11-4,55,52,50,54,48,43,94,87,76,30.17,30.13,30.07,10,7,2,10,6,,0.20,4,,100
2013-11-5,64,58,53,63,58,54,100,94,83,30.15,30.07,29.99,10,4,0,14,8,18,1.40,8,,120
2013-11-6,68,52,37,64,49,36,100,86,67,30.35,30.15,29.97,10,9,0,18,10,23,0.67,4,,308
2013-11-7,64,48,33,43,37,32,100,74,34,30.47,30.41,30.35,10,10,10,7,2,,0.00,0,,312
2013-11-8,66,52,37,50,40,34,100,67,32,30.38,30.28,30.16,10,9,2,13,3,17,0.00,0,,154
2013-11-9,59,54,50,50,48,45,94,82,63,30.28,30.21,30.16,10,10,4,12,5,,0.01,1,,116
2013-11-10,71,61,50,52,48,45,94,72,38,30.37,30.30,30.27,10,8,2,7,2,,0.00,2,,106
2013-11-11,73,58,42,50,47,41,100,76,38,30.30,30.25,30.19,10,9,0,6,2,,0.00,0,,130
2013-11-12,55,42,28,52,34,21,94,64,33,30.67,30.53,30.27,10,10,10,18,9,25,0.00,2,,358
2013-11-13,51,37,23,23,21,14,93,58,22,30.71,30.59,30.40,10,10,10,10,3,,0.00,0,,120
2013-11-14,55,40,26,34,28,21,87,61,33,30.40,30.24,30.09,10,10,7,12,5,16,0.00,1,,126
2013-11-15,55,48,42,54,46,34,100,92,62,30.09,30.00,29.92,10,4,0,9,6,,0.13,8,,95
2013-11-16,71,63,55,66,60,54,100,89,73,29.94,29.83,29.74,10,8,2,17,8,24,0.00,7,,135
2013-11-17,84,70,57,68,54,32,88,57,23,30.03,29.81,29.70,10,10,10,18,12,26,0.00,3,,250
2013-11-18,71,56,42,37,31,23,71,39,21,30.23,30.16,30.03,10,9,1,10,6,17,0.00,0,,55
2013-11-19,60,53,46,37,31,25,71,48,25,30.25,30.17,30.10,10,9,2,16,7,25,0.00,0,,98
2013-11-20,62,50,39,37,33,32,76,49,32,30.11,30.04,29.97,10,10,10,15,9,18,0.00,3,,115
2013-11-21,64,58,53,59,50,37,100,78,51,30.15,30.05,30.01,10,7,0,12,6,,0.01,8,,81
2013-11-22,60,48,37,59,40,36,100,89,76,30.42,30.31,30.12,10,7,1,18,12,23,0.03,8,,345
2013-11-23,46,39,32,37,34,27,100,80,50,30.55,30.49,30.41,10,9,3,14,8,22,0.36,5,,7
2013-11-24,35,32,28,27,20,12,80,60,38,30.63,30.51,30.37,10,10,7,15,6,22,0.39,0,,52
2013-11-25,35,34,32,34,30,23,100,89,69,30.37,30.26,30.15,10,6,1,9,5,,0.20,7,,51
2013-11-26,50,41,32,34,31,23,100,75,47,30.32,30.15,30.07,10,8,2,21,10,30,0.16,3,,341
2013-11-27,46,35,24,23,17,12,86,53,25,30.43,30.36,30.32,10,10,7,15,7,21,0.12,0,,335
2013-11-28,51,36,21,28,23,19,93,68,33,30.49,30.42,30.37,10,10,5,7,1,,0.09,0,,160
2013-11-29,55,39,23,34,28,21,100,70,36,30.55,30.46,30.39,10,10,7,8,2,,0.04,0,,133
2013-11-30,64,48,32,45,38,28,93,72,44,30.39,30.28,30.17,10,10,10,17,5,21,0.01,3,,171